Time;durP1;ratioP1;P1;durP2;ratioP2;P2;SDS_P1;SDS_P2;PMS_P1;PMS_P2;Temp;Humidity;BMP_temperature;BMP_pressure;BME280_temperature;BME280_humidity;BME280_pressure;Samples;Min_cycle;Max_cycle;Signal;HPM_P1;HPM_P2
2023/06/12 00:01:02;;;;;;;;;;;22.40;92.70;;;;;;5096522;28;20379;-42
2023/06/12 00:03:29;;;;;;;;;;;22.40;92.70;;;;;;5096330;28;19908;-43
2023/06/12 00:06:01;;;;;;;;;;;22.40;92.70;;;;;;5096249;28;19912;-44
2023/06/12 00:08:28;;;;;;;;;;;22.40;92.80;;;;;;5096669;28;19970;-43
2023/06/12 00:10:54;;;;;;;;;;;22.40;92.80;;;;;;5096423;28;19912;-42
2023/06/12 00:13:20;;;;;;;;;;;22.40;92.80;;;;;;5095945;28;19970;-43
2023/06/12 00:15:49;;;;;;;;;;;22.40;92.80;;;;;;5096350;28;19912;-43
2023/06/12 00:18:15;;;;;;;;;;;22.40;92.80;;;;;;5096026;28;20378;-43
2023/06/12 00:20:41;;;;;;;;;;;22.40;92.80;;;;;;5096302;28;19919;-43
2023/06/12 00:23:07;;;;;;;;;;;22.40;92.80;;;;;;5096581;28;19930;-42
2023/06/12 00:25:32;;;;;;;;;;;22.40;92.80;;;;;;5096251;28;20366;-43
2023/06/12 00:27:58;;;;;;;;;;;22.40;92.90;;;;;;5096188;28;19908;-43
2023/06/12 00:30:23;;;;;;;;;;;22.40;92.90;;;;;;5095850;28;19912;-43
2023/06/12 00:32:49;;;;;;;;;;;22.40;92.90;;;;;;5096032;28;19962;-47
2023/06/12 00:35:18;;;;;;;;;;;22.40;93.00;;;;;;5096042;28;19951;-45
2023/06/12 00:37:45;;;;;;;;;;;22.40;93.00;;;;;;5094795;28;20355;-43
2023/06/12 00:40:10;;;;;;;;;;;22.40;93.00;;;;;;5095587;28;19939;-45
2023/06/12 00:42:41;;;;;;;;;;;22.40;93.00;;;;;;5096162;28;20262;-45
2023/06/12 00:45:07;;;;;;;;;;;22.40;93.00;;;;;;5095907;28;20250;-45
2023/06/12 00:47:33;;;;;;;;;;;22.50;93.00;;;;;;5095595;28;19924;-44
2023/06/12 00:49:59;;;;;;;;;;;22.40;93.00;;;;;;5095679;28;19908;-43
2023/06/12 00:52:26;;;;;;;;;;;22.40;93.00;;;;;;5095528;28;20377;-42
2023/06/12 00:54:52;;;;;;;;;;;22.40;93.00;;;;;;5095530;28;19918;-42
2023/06/12 00:57:18;;;;;;;;;;;22.40;93.00;;;;;;5095468;28;20394;-47
2023/06/12 00:59:43;;;;;;;;;;;22.40;93.00;;;;;;5095478;28;19981;-46
2023/06/12 01:02:09;;;;;;;;;;;22.40;93.00;;;;;;5095753;28;19951;-43
2023/06/12 01:04:37;;;;;;;;;;;22.40;93.10;;;;;;5095466;28;19908;-45
2023/06/12 01:07:07;;;;;;;;;;;22.40;93.00;;;;;;5095653;28;19908;-46
2023/06/12 01:09:36;;;;;;;;;;;22.40;93.10;;;;;;5095046;28;20275;-45
2023/06/12 01:12:03;;;;;;;;;;;22.40;93.10;;;;;;5095264;28;20350;-43
2023/06/12 01:14:28;;;;;;;;;;;22.40;93.10;;;;;;5094787;28;20363;-46
2023/06/12 01:16:58;;;;;;;;;;;22.40;93.10;;;;;;5095197;28;19923;-46
2023/06/12 01:19:23;;;;;;;;;;;22.40;93.10;;;;;;5095366;28;19948;-48
2023/06/12 01:21:52;;;;;;;;;;;22.40;93.10;;;;;;5095081;28;19908;-45
2023/06/12 01:24:29;;;;;;;;;;;22.40;93.00;;;;;;5094960;28;19955;-46
2023/06/12 01:27:06;;;;;;;;;;;22.40;93.00;;;;;;5094984;28;19912;-43
2023/06/12 01:29:50;;;;;;;;;;;22.40;93.10;;;;;;5094675;28;19908;-48
2023/06/12 01:32:16;;;;;;;;;;;22.40;93.00;;;;;;5094763;28;19915;-44
2023/06/12 01:34:50;;;;;;;;;;;22.40;93.10;;;;;;5094901;28;20306;-43
2023/06/12 01:37:16;;;;;;;;;;;22.40;93.20;;;;;;5094788;28;19909;-47
2023/06/12 01:39:47;;;;;;;;;;;22.40;93.10;;;;;;5094485;28;19915;-45
2023/06/12 01:42:13;;;;;;;;;;;22.40;93.20;;;;;;5094504;28;19916;-46
2023/06/12 01:44:38;;;;;;;;;;;22.40;93.10;;;;;;5094703;28;20363;-45
2023/06/12 01:47:04;;;;;;;;;;;22.40;93.20;;;;;;5094540;28;20034;-43
2023/06/12 01:49:30;;;;;;;;;;;22.40;93.20;;;;;;5094409;28;20037;-44
2023/06/12 01:51:55;;;;;;;;;;;22.30;93.10;;;;;;5094497;28;20105;-46
2023/06/12 01:54:22;;;;;;;;;;;22.30;93.20;;;;;;5094456;28;19919;-44
2023/06/12 01:56:48;;;;;;;;;;;22.30;93.10;;;;;;5094453;28;19919;-47
2023/06/12 01:59:14;;;;;;;;;;;22.40;93.20;;;;;;5094407;28;19912;-45
2023/06/12 02:01:39;;;;;;;;;;;22.40;93.20;;;;;;5094030;28;19948;-43
2023/06/12 02:04:06;;;;;;;;;;;22.30;93.20;;;;;;5094299;28;19916;-43
2023/06/12 02:06:32;;;;;;;;;;;22.40;93.20;;;;;;5094214;28;19962;-43
2023/06/12 02:08:57;;;;;;;;;;;22.40;93.20;;;;;;5094262;28;19947;-45
2023/06/12 02:11:23;;;;;;;;;;;22.30;93.20;;;;;;5094250;28;19912;-43
2023/06/12 02:13:48;;;;;;;;;;;22.40;93.30;;;;;;5093884;28;20357;-42
2023/06/12 02:16:14;;;;;;;;;;;22.40;93.30;;;;;;5093970;28;19916;-47
2023/06/12 02:18:40;;;;;;;;;;;22.30;93.30;;;;;;5093995;28;19951;-46
2023/06/12 02:21:05;;;;;;;;;;;22.30;93.30;;;;;;5094043;28;19915;-44
2023/06/12 02:23:31;;;;;;;;;;;22.40;93.40;;;;;;5094114;28;19954;-45
2023/06/12 02:25:56;;;;;;;;;;;22.40;93.40;;;;;;5094444;28;19909;-45
2023/06/12 02:28:22;;;;;;;;;;;22.40;93.40;;;;;;5093744;28;19915;-45
2023/06/12 02:30:47;;;;;;;;;;;22.40;93.60;;;;;;5075960;28;20006;-44
2023/06/12 02:33:13;;;;;;;;;;;22.40;93.40;;;;;;5093619;28;20014;-44
2023/06/12 02:35:39;;;;;;;;;;;22.40;93.40;;;;;;5075824;28;19919;-44
2023/06/12 02:38:04;;;;;;;;;;;22.40;93.40;;;;;;5093938;28;19944;-43
2023/06/12 02:40:30;;;;;;;;;;;22.30;93.70;;;;;;5075567;28;19908;-43
2023/06/12 02:42:55;;;;;;;;;;;22.30;93.40;;;;;;5075804;28;19909;-48
2023/06/12 02:45:21;;;;;;;;;;;22.40;93.50;;;;;;5093900;28;20421;-44
2023/06/12 02:47:47;;;;;;;;;;;22.30;93.50;;;;;;5093395;28;19974;-43
2023/06/12 02:50:12;;;;;;;;;;;22.30;93.50;;;;;;5093577;28;19912;-43
2023/06/12 02:52:40;;;;;;;;;;;22.30;93.50;;;;;;5094055;28;20243;-45
2023/06/12 02:55:06;;;;;;;;;;;22.40;93.50;;;;;;5075874;28;19916;-48
2023/06/12 02:57:32;;;;;;;;;;;22.30;93.50;;;;;;5093874;28;20243;-46
2023/06/12 02:59:57;;;;;;;;;;;22.30;93.50;;;;;;5076717;28;19915;-44
2023/06/12 03:02:23;;;;;;;;;;;22.30;93.50;;;;;;5098082;28;20022;-48
2023/06/12 03:04:49;;;;;;;;;;;22.30;93.60;;;;;;5097768;28;20315;-43
2023/06/12 03:07:16;;;;;;;;;;;22.30;93.60;;;;;;5097654;28;19915;-43
2023/06/12 03:09:45;;;;;;;;;;;22.30;93.60;;;;;;5097598;28;19909;-43
2023/06/12 03:12:10;;;;;;;;;;;22.30;93.60;;;;;;5097258;28;19908;-46
2023/06/12 03:14:36;;;;;;;;;;;22.30;93.60;;;;;;5097489;28;19995;-42
2023/06/12 03:17:02;;;;;;;;;;;22.30;93.60;;;;;;5097212;28;19912;-47
2023/06/12 03:19:27;;;;;;;;;;;22.30;93.60;;;;;;5097427;28;19909;-46
2023/06/12 03:21:53;;;;;;;;;;;22.30;93.60;;;;;;5079286;28;19912;-44
2023/06/12 03:24:20;;;;;;;;;;;22.30;93.60;;;;;;5097475;28;20002;-43
2023/06/12 03:26:46;;;;;;;;;;;22.30;93.60;;;;;;5097647;28;19912;-45
2023/06/12 03:29:11;;;;;;;;;;;22.30;93.60;;;;;;5097303;28;19915;-43
2023/06/12 03:31:37;;;;;;;;;;;22.30;93.60;;;;;;5097204;28;19999;-46
2023/06/12 03:34:03;;;;;;;;;;;22.30;93.60;;;;;;5097054;28;19912;-47
2023/06/12 03:36:28;;;;;;;;;;;22.30;93.90;;;;;;5097362;28;19988;-43
2023/06/12 03:38:54;;;;;;;;;;;22.40;93.70;;;;;;5078894;28;19912;-46
2023/06/12 03:41:20;;;;;;;;;;;22.40;93.60;;;;;;5097066;28;19908;-45
2023/06/12 03:43:45;;;;;;;;;;;22.40;93.60;;;;;;5097020;28;19935;-43
2023/06/12 03:46:11;;;;;;;;;;;22.40;93.60;;;;;;5096724;28;19908;-46
2023/06/12 03:48:36;;;;;;;;;;;22.40;93.60;;;;;;5097026;28;20317;-44
2023/06/12 03:51:02;;;;;;;;;;;22.40;93.60;;;;;;5096616;28;19908;-48
2023/06/12 03:53:27;;;;;;;;;;;22.40;93.60;;;;;;5096704;28;19912;-47
2023/06/12 03:55:53;;;;;;;;;;;22.40;93.50;;;;;;5078566;28;19959;-43
2023/06/12 03:58:18;;;;;;;;;;;22.40;93.50;;;;;;5097009;28;19954;-44
2023/06/12 04:00:47;;;;;;;;;;;22.40;93.50;;;;;;5096369;28;20422;-44
2023/06/12 04:03:18;;;;;;;;;;;22.40;93.50;;;;;;5096592;28;19908;-43
2023/06/12 04:06:02;;;;;;;;;;;22.40;93.50;;;;;;5096729;28;19909;-44
2023/06/12 04:08:28;;;;;;;;;;;22.40;93.50;;;;;;5096409;28;19951;-42
2023/06/12 04:10:53;;;;;;;;;;;22.50;93.50;;;;;;5095755;28;19935;-44
2023/06/12 04:13:18;;;;;;;;;;;22.50;93.50;;;;;;5095740;28;19919;-42
2023/06/12 04:15:44;;;;;;;;;;;22.50;93.50;;;;;;5096361;28;20333;-44
2023/06/12 04:18:10;;;;;;;;;;;22.50;93.40;;;;;;5096409;28;20026;-44
2023/06/12 04:20:38;;;;;;;;;;;22.50;93.40;;;;;;5095852;28;19908;-45
2023/06/12 04:23:04;;;;;;;;;;;22.50;93.10;;;;;;5096086;28;19953;-43
2023/06/12 04:25:36;;;;;;;;;;;22.50;93.10;;;;;;5095574;28;19915;-46
2023/06/12 04:28:03;;;;;;;;;;;22.50;93.20;;;;;;5096474;28;20240;-43
2023/06/12 04:30:31;;;;;;;;;;;22.50;92.90;;;;;;5077776;28;20382;-45
2023/06/12 04:32:56;;;;;;;;;;;22.60;93.10;;;;;;5095860;28;19963;-45
2023/06/12 04:35:22;;;;;;;;;;;22.60;93.10;;;;;;5095884;28;19996;-43
2023/06/12 04:37:52;;;;;;;;;;;22.60;93.20;;;;;;5095795;28;19953;-43
2023/06/12 04:40:20;;;;;;;;;;;22.50;93.20;;;;;;5095447;28;19909;-46
2023/06/12 04:42:46;;;;;;;;;;;22.60;93.20;;;;;;5077882;28;19952;-46
2023/06/12 04:45:16;;;;;;;;;;;22.60;93.20;;;;;;5095341;28;20378;-43
2023/06/12 04:47:41;;;;;;;;;;;22.60;93.20;;;;;;5095210;28;19978;-43
2023/06/12 04:50:09;;;;;;;;;;;22.60;93.20;;;;;;5095540;28;19908;-48
2023/06/12 04:52:34;;;;;;;;;;;22.60;93.20;;;;;;5095765;28;19919;-46
2023/06/12 04:55:00;;;;;;;;;;;22.60;93.20;;;;;;5095286;28;19912;-47
2023/06/12 04:57:27;;;;;;;;;;;22.60;93.10;;;;;;5095402;28;19956;-45
2023/06/12 04:59:52;;;;;;;;;;;22.60;93.20;;;;;;5095285;28;20338;-45
2023/06/12 05:02:18;;;;;;;;;;;22.60;93.10;;;;;;5095376;28;19952;-45
2023/06/12 05:04:44;;;;;;;;;;;22.60;93.10;;;;;;5094989;28;19912;-45
2023/06/12 05:07:21;;;;;;;;;;;22.60;93.10;;;;;;5094866;28;20382;-45
2023/06/12 05:09:46;;;;;;;;;;;22.60;93.00;;;;;;5095509;28;19953;-47
2023/06/12 05:12:12;;;;;;;;;;;22.60;93.00;;;;;;5094850;28;19915;-45
2023/06/12 05:14:41;;;;;;;;;;;22.60;93.00;;;;;;5094801;28;19916;-45
2023/06/12 05:17:07;;;;;;;;;;;22.60;93.00;;;;;;5095081;28;19912;-44
2023/06/12 05:19:32;;;;;;;;;;;22.60;93.00;;;;;;5095003;28;19915;-49
2023/06/12 05:21:58;;;;;;;;;;;22.70;93.00;;;;;;5095007;28;19915;-47
2023/06/12 05:24:23;;;;;;;;;;;22.60;93.00;;;;;;5094550;28;19919;-44
2023/06/12 05:26:50;;;;;;;;;;;22.60;93.00;;;;;;5094848;28;19947;-45
2023/06/12 05:29:15;;;;;;;;;;;22.60;93.10;;;;;;5094651;28;19915;-44
2023/06/12 05:31:41;;;;;;;;;;;22.60;93.10;;;;;;5094709;28;19908;-45
2023/06/12 05:34:06;;;;;;;;;;;22.60;93.10;;;;;;5094369;28;19918;-44
2023/06/12 05:36:32;;;;;;;;;;;22.60;93.00;;;;;;5094593;28;19951;-45
2023/06/12 05:38:57;;;;;;;;;;;22.60;93.00;;;;;;5076487;28;20267;-46
2023/06/12 05:41:23;;;;;;;;;;;22.70;93.00;;;;;;5094548;28;19908;-44
2023/06/12 05:43:48;;;;;;;;;;;22.70;93.00;;;;;;5076098;28;20242;-44
2023/06/12 05:46:14;;;;;;;;;;;22.60;92.90;;;;;;5094326;28;19912;-45
2023/06/12 05:48:39;;;;;;;;;;;22.60;92.90;;;;;;5094347;28;19935;-44
2023/06/12 05:51:08;;;;;;;;;;;22.60;92.90;;;;;;5092809;28;19912;-45
2023/06/12 05:53:34;;;;;;;;;;;22.70;92.90;;;;;;5094126;28;20415;-44
2023/06/12 05:55:59;;;;;;;;;;;22.60;92.80;;;;;;5108735;28;19918;-45
2023/06/12 05:58:25;;;;;;;;;;;22.60;92.60;;;;;;5074115;28;19908;-46
2023/06/12 06:00:52;;;;;;;;;;;22.60;92.60;;;;;;5087268;28;20303;-45
2023/06/12 06:03:19;;;;;;;;;;;22.70;92.60;;;;;;5101484;28;19908;-44
2023/06/12 06:05:45;;;;;;;;;;;22.60;92.70;;;;;;5093580;28;19908;-43
2023/06/12 06:08:12;;;;;;;;;;;22.70;92.50;;;;;;5105859;28;19919;-45
2023/06/12 06:10:37;;;;;;;;;;;22.60;92.40;;;;;;5108145;28;20003;-44
2023/06/12 06:13:03;;;;;;;;;;;22.70;92.50;;;;;;5096793;28;20002;-42
2023/06/12 06:15:28;;;;;;;;;;;22.60;92.30;;;;;;5094038;28;19912;-49
2023/06/12 06:17:54;;;;;;;;;;;22.60;92.20;;;;;;5094063;28;19912;-46
2023/06/12 06:20:20;;;;;;;;;;;22.60;92.30;;;;;;5093999;28;19908;-43
2023/06/12 06:22:46;;;;;;;;;;;22.60;92.50;;;;;;5093957;28;19952;-43
2023/06/12 06:25:13;;;;;;;;;;;22.60;92.50;;;;;;5093854;28;20366;-47
2023/06/12 06:27:38;;;;;;;;;;;22.60;92.60;;;;;;5094288;28;19914;-46
2023/06/12 06:30:04;;;;;;;;;;;22.60;92.40;;;;;;5094895;28;20011;-49
2023/06/12 06:32:30;;;;;;;;;;;22.70;92.50;;;;;;5093815;28;19930;-44
2023/06/12 06:34:55;;;;;;;;;;;22.60;92.20;;;;;;5095321;28;19912;-43
2023/06/12 06:37:21;;;;;;;;;;;22.60;92.30;;;;;;5098089;28;19958;-44
2023/06/12 06:39:46;;;;;;;;;;;22.60;92.30;;;;;;5097664;28;19912;-46
2023/06/12 06:42:12;;;;;;;;;;;22.60;92.00;;;;;;5098418;28;20366;-46
2023/06/12 06:44:38;;;;;;;;;;;22.60;92.20;;;;;;5097995;28;19908;-44
2023/06/12 06:47:03;;;;;;;;;;;22.60;92.20;;;;;;5112715;28;20447;-45
2023/06/12 06:49:30;;;;;;;;;;;22.60;92.40;;;;;;5118194;28;19908;-45
2023/06/12 06:51:55;;;;;;;;;;;22.60;92.30;;;;;;5118280;28;19908;-44
2023/06/12 06:54:21;;;;;;;;;;;22.70;92.50;;;;;;5103770;28;20458;-45
2023/06/12 06:56:48;;;;;;;;;;;22.60;92.40;;;;;;5097462;28;20313;-42
2023/06/12 06:59:14;;;;;;;;;;;22.60;92.30;;;;;;5097121;28;19974;-46
2023/06/12 07:01:40;;;;;;;;;;;22.60;92.40;;;;;;5097664;28;19912;-42
2023/06/12 07:04:06;;;;;;;;;;;22.60;92.30;;;;;;5112696;28;19908;-43
2023/06/12 07:06:33;;;;;;;;;;;22.60;92.20;;;;;;5117838;28;19908;-43
2023/06/12 07:08:59;;;;;;;;;;;22.60;92.00;;;;;;5115423;28;20005;-46
2023/06/12 07:11:26;;;;;;;;;;;22.60;92.00;;;;;;5099043;28;19961;-45
2023/06/12 07:13:51;;;;;;;;;;;22.60;92.10;;;;;;5096469;28;19916;-45
2023/06/12 07:16:17;;;;;;;;;;;22.70;92.10;;;;;;5099315;28;19912;-42
2023/06/12 07:18:42;;;;;;;;;;;22.60;92.00;;;;;;5100682;28;19912;-47
2023/06/12 07:21:07;;;;;;;;;;;22.70;92.30;;;;;;5094412;28;19997;-43
2023/06/12 07:23:33;;;;;;;;;;;22.70;92.20;;;;;;5095074;28;19966;-45
2023/06/12 07:25:58;;;;;;;;;;;22.70;92.10;;;;;;5085757;28;20363;-46
2023/06/12 07:28:24;;;;;;;;;;;22.60;92.10;;;;;;5078971;28;19954;-43
2023/06/12 07:30:50;;;;;;;;;;;22.60;92.10;;;;;;5102174;28;19915;-43
2023/06/12 07:33:15;;;;;;;;;;;22.70;92.10;;;;;;5097072;28;19912;-44
2023/06/12 07:35:40;;;;;;;;;;;22.60;91.90;;;;;;5096653;28;20313;-45
2023/06/12 07:38:06;;;;;;;;;;;22.60;91.90;;;;;;5112342;28;19915;-44
2023/06/12 07:40:31;;;;;;;;;;;22.60;92.00;;;;;;5074627;28;20359;-43
2023/06/12 07:42:57;;;;;;;;;;;22.60;91.70;;;;;;5096828;28;19908;-43
2023/06/12 07:45:23;;;;;;;;;;;22.60;91.50;;;;;;5096500;28;20251;-47
2023/06/12 07:47:49;;;;;;;;;;;22.60;91.70;;;;;;5096688;28;19928;-47
2023/06/12 07:50:15;;;;;;;;;;;22.70;91.50;;;;;;5098873;28;19908;-45
2023/06/12 07:52:41;;;;;;;;;;;22.70;91.50;;;;;;5117033;28;19908;-45
2023/06/12 07:55:06;;;;;;;;;;;22.70;91.60;;;;;;5101263;28;20282;-48
2023/06/12 07:57:32;;;;;;;;;;;22.60;91.60;;;;;;5103950;28;20001;-43
2023/06/12 07:59:58;;;;;;;;;;;22.60;91.50;;;;;;5096609;28;20347;-43
2023/06/12 08:02:28;;;;;;;;;;;22.60;91.60;;;;;;5096601;28;20011;-45
2023/06/12 08:04:55;;;;;;;;;;;22.60;91.50;;;;;;5114206;28;20014;-45
2023/06/12 08:07:21;;;;;;;;;;;22.60;91.30;;;;;;5102841;28;20274;-45
2023/06/12 08:09:47;;;;;;;;;;;22.60;91.30;;;;;;5105408;28;20015;-47
2023/06/12 08:12:13;;;;;;;;;;;22.70;91.90;;;;;;5100462;28;19938;-45
2023/06/12 08:14:39;;;;;;;;;;;22.70;91.80;;;;;;5101676;28;19920;-45
2023/06/12 08:17:04;;;;;;;;;;;22.70;91.60;;;;;;5095948;28;19916;-47
2023/06/12 08:19:32;;;;;;;;;;;22.60;91.40;;;;;;5111749;28;19965;-44
2023/06/12 08:21:58;;;;;;;;;;;22.60;91.50;;;;;;5116486;28;20264;-48
2023/06/12 08:24:28;;;;;;;;;;;22.60;91.10;;;;;;5114986;28;19916;-45
2023/06/12 08:26:54;;;;;;;;;;;22.60;91.10;;;;;;5095522;28;19946;-44
2023/06/12 08:29:19;;;;;;;;;;;22.60;91.10;;;;;;5095058;28;19965;-44
2023/06/12 08:31:45;;;;;;;;;;;22.60;91.00;;;;;;5096073;28;19908;-43
2023/06/12 08:34:10;;;;;;;;;;;22.60;91.10;;;;;;5095908;28;19912;-46
2023/06/12 08:36:36;;;;;;;;;;;22.60;91.10;;;;;;5094738;28;19915;-44
2023/06/12 08:39:02;;;;;;;;;;;22.60;91.20;;;;;;5095671;28;20010;-45
2023/06/12 08:41:29;;;;;;;;;;;22.60;91.20;;;;;;5095835;28;19908;-44
2023/06/12 08:43:56;;;;;;;;;;;22.60;91.40;;;;;;5094853;28;19942;-46
2023/06/12 08:46:22;;;;;;;;;;;22.70;91.60;;;;;;5100581;28;19912;-45
2023/06/12 08:48:48;;;;;;;;;;;22.70;91.50;;;;;;5102075;28;20370;-44
2023/06/12 08:51:13;;;;;;;;;;;22.60;91.30;;;;;;5092743;28;19912;-43
2023/06/12 08:53:39;;;;;;;;;;;22.60;91.40;;;;;;5100613;28;19961;-45
2023/06/12 08:56:06;;;;;;;;;;;22.60;91.50;;;;;;5104215;28;20328;-46
2023/06/12 08:58:31;;;;;;;;;;;22.60;91.40;;;;;;5094853;28;19908;-48
2023/06/12 09:00:57;;;;;;;;;;;22.70;91.50;;;;;;5094898;28;20023;-45
2023/06/12 09:03:22;;;;;;;;;;;22.70;91.50;;;;;;5100802;28;19965;-45
2023/06/12 09:05:51;;;;;;;;;;;22.70;91.50;;;;;;5113181;28;19935;-45
2023/06/12 09:08:16;;;;;;;;;;;22.70;91.50;;;;;;5106377;28;20266;-45
2023/06/12 09:10:43;;;;;;;;;;;22.60;91.40;;;;;;5095127;28;19909;-45
2023/06/12 09:13:12;;;;;;;;;;;22.70;91.40;;;;;;5096783;28;19919;-44
2023/06/12 09:15:38;;;;;;;;;;;22.70;91.20;;;;;;5115715;28;20068;-43
2023/06/12 09:18:07;;;;;;;;;;;22.60;91.30;;;;;;5115676;28;19912;-47
2023/06/12 09:20:33;;;;;;;;;;;22.60;91.30;;;;;;5096124;28;19915;-47
2023/06/12 09:23:03;;;;;;;;;;;22.60;91.40;;;;;;5095134;28;19999;-47
2023/06/12 09:25:36;;;;;;;;;;;22.70;91.40;;;;;;5094947;28;19961;-48
2023/06/12 09:28:04;;;;;;;;;;;22.60;91.30;;;;;;5094878;28;19908;-43
2023/06/12 09:30:31;;;;;;;;;;;22.60;91.30;;;;;;5094481;28;19915;-45
2023/06/12 09:32:58;;;;;;;;;;;22.70;91.40;;;;;;5094743;28;20030;-46
2023/06/12 09:35:24;;;;;;;;;;;22.60;91.30;;;;;;5095352;28;19916;-45
2023/06/12 09:37:50;;;;;;;;;;;22.60;91.30;;;;;;5094697;28;19950;-44
2023/06/12 09:40:15;;;;;;;;;;;22.60;91.30;;;;;;5094692;28;19957;-48
2023/06/12 09:42:42;;;;;;;;;;;22.60;91.30;;;;;;5094378;28;19909;-45
2023/06/12 09:45:14;;;;;;;;;;;22.60;91.30;;;;;;5097597;28;19958;-45
2023/06/12 09:47:40;;;;;;;;;;;22.60;91.20;;;;;;5103073;28;19930;-44
2023/06/12 09:50:06;;;;;;;;;;;22.60;91.20;;;;;;5077362;28;19934;-44
2023/06/12 09:52:31;;;;;;;;;;;22.60;91.20;;;;;;5114852;28;19919;-45
2023/06/12 09:54:57;;;;;;;;;;;22.60;91.30;;;;;;5111303;28;19919;-45
2023/06/12 09:57:23;;;;;;;;;;;22.60;91.20;;;;;;5114630;28;19908;-46
2023/06/12 09:59:49;;;;;;;;;;;22.60;91.10;;;;;;5113624;28;19965;-44
2023/06/12 10:02:15;;;;;;;;;;;22.60;90.90;;;;;;5103582;28;19911;-44
2023/06/12 10:04:59;;;;;;;;;;;22.60;90.50;;;;;;5101908;28;20469;-43
2023/06/12 10:07:28;;;;;;;;;;;22.60;90.20;;;;;;5094005;28;19919;-45
2023/06/12 10:09:53;;;;;;;;;;;22.60;90.10;;;;;;5094244;28;20313;-45
2023/06/12 10:12:19;;;;;;;;;;;22.60;90.00;;;;;;5110506;28;19911;-47
2023/06/12 10:14:44;;;;;;;;;;;22.60;89.70;;;;;;5109444;28;19919;-47
2023/06/12 10:17:10;;;;;;;;;;;22.60;89.60;;;;;;5096184;28;20072;-43
2023/06/12 10:19:37;;;;;;;;;;;22.60;90.10;;;;;;5114470;28;20393;-47
2023/06/12 10:22:03;;;;;;;;;;;22.60;90.10;;;;;;5114419;28;19908;-47
2023/06/12 10:24:29;;;;;;;;;;;22.60;90.00;;;;;;5113953;28;20023;-46
2023/06/12 10:26:56;;;;;;;;;;;22.60;90.00;;;;;;5108303;28;19912;-48
2023/06/12 10:29:29;;;;;;;;;;;22.60;90.00;;;;;;5089327;28;19943;-47
2023/06/12 10:32:05;;;;;;;;;;;22.60;90.10;;;;;;5091462;28;20324;-45
2023/06/12 10:34:33;;;;;;;;;;;22.60;90.20;;;;;;5099065;28;20278;-44
2023/06/12 10:37:18;;;;;;;;;;;22.60;90.10;;;;;;5092557;28;19916;-43
2023/06/12 10:39:45;;;;;;;;;;;22.60;90.10;;;;;;5096434;28;20011;-46
2023/06/12 10:42:11;;;;;;;;;;;22.60;90.00;;;;;;5103495;28;19935;-44
2023/06/12 10:44:38;;;;;;;;;;;22.60;90.10;;;;;;5093641;28;20351;-45
2023/06/12 10:47:03;;;;;;;;;;;22.60;90.20;;;;;;5073612;28;20398;-43
2023/06/12 10:49:29;;;;;;;;;;;22.60;90.10;;;;;;5085007;28;19912;-45
2023/06/12 10:51:57;;;;;;;;;;;22.60;90.20;;;;;;5093499;28;19931;-47
2023/06/12 10:54:26;;;;;;;;;;;22.60;90.30;;;;;;5093253;28;19981;-47
2023/06/12 10:56:58;;;;;;;;;;;22.60;90.30;;;;;;5093413;28;19912;-46
2023/06/12 10:59:33;;;;;;;;;;;22.60;90.20;;;;;;5093616;28;19973;-46
2023/06/12 11:01:58;;;;;;;;;;;22.60;90.10;;;;;;5088147;28;19919;-43
2023/06/12 11:04:24;;;;;;;;;;;22.60;90.00;;;;;;5072521;28;19916;-47
2023/06/12 11:06:49;;;;;;;;;;;22.60;90.00;;;;;;5073204;28;20309;-48
2023/06/12 11:09:15;;;;;;;;;;;22.60;90.00;;;;;;5073402;28;19909;-47
2023/06/12 11:11:41;;;;;;;;;;;22.60;90.00;;;;;;5073405;28;20348;-43
2023/06/12 11:14:07;;;;;;;;;;;22.60;89.80;;;;;;5079304;28;19916;-43
2023/06/12 11:16:39;;;;;;;;;;;22.60;89.90;;;;;;5088152;28;19922;-43
2023/06/12 11:19:06;;;;;;;;;;;22.60;90.00;;;;;;5090596;28;20003;-47
2023/06/12 11:21:32;;;;;;;;;;;22.60;90.20;;;;;;5095070;28;19951;-43
2023/06/12 11:24:03;;;;;;;;;;;22.60;90.40;;;;;;5096111;28;19950;-45
2023/06/12 11:26:31;;;;;;;;;;;22.60;90.30;;;;;;5097027;28;19938;-45
2023/06/12 11:29:11;;;;;;;;;;;22.60;90.10;;;;;;5096570;28;19908;-46
2023/06/12 11:31:37;;;;;;;;;;;22.60;90.20;;;;;;5097264;28;19966;-43
2023/06/12 11:34:04;;;;;;;;;;;22.60;90.40;;;;;;5096892;28;19982;-44
2023/06/12 11:36:29;;;;;;;;;;;22.60;90.10;;;;;;5096633;28;20278;-47
2023/06/12 11:38:55;;;;;;;;;;;22.60;90.10;;;;;;5096792;28;19912;-44
2023/06/12 11:41:20;;;;;;;;;;;22.60;90.00;;;;;;5096909;28;20366;-44
2023/06/12 11:43:46;;;;;;;;;;;22.60;90.10;;;;;;5097391;28;19908;-46
2023/06/12 11:46:11;;;;;;;;;;;22.60;90.30;;;;;;5096595;28;19908;-44
2023/06/12 11:48:37;;;;;;;;;;;22.60;90.20;;;;;;5115766;28;19979;-43
2023/06/12 11:51:03;;;;;;;;;;;22.60;90.10;;;;;;5117003;28;19914;-43
2023/06/12 11:53:30;;;;;;;;;;;22.60;90.20;;;;;;5116890;28;19923;-43
2023/06/12 11:56:00;;;;;;;;;;;22.60;90.20;;;;;;5116738;28;20358;-44
2023/06/12 11:58:36;;;;;;;;;;;22.60;90.40;;;;;;5116964;28;19908;-43
2023/06/12 12:01:11;;;;;;;;;;;22.60;90.40;;;;;;5116760;28;19915;-44
2023/06/12 12:03:37;;;;;;;;;;;22.60;90.30;;;;;;5098244;28;19951;-44
2023/06/12 12:06:02;;;;;;;;;;;22.60;90.20;;;;;;5116374;28;19915;-44
2023/06/12 12:08:28;;;;;;;;;;;22.60;90.30;;;;;;5116596;28;20347;-45
2023/06/12 12:10:54;;;;;;;;;;;22.60;90.00;;;;;;5116563;28;19912;-44
2023/06/12 12:13:19;;;;;;;;;;;22.60;90.10;;;;;;5116757;28;19958;-46
2023/06/12 12:15:45;;;;;;;;;;;22.60;90.00;;;;;;5116405;28;19972;-43
2023/06/12 12:18:12;;;;;;;;;;;22.60;90.00;;;;;;5098262;28;19907;-42
2023/06/12 12:20:38;;;;;;;;;;;22.60;90.10;;;;;;5097829;28;19914;-43
2023/06/12 12:23:09;;;;;;;;;;;22.60;90.40;;;;;;5116458;28;19908;-45
2023/06/12 12:25:35;;;;;;;;;;;22.60;90.10;;;;;;5116557;28;19908;-44
2023/06/12 12:28:02;;;;;;;;;;;22.60;90.20;;;;;;5116186;28;19946;-44
2023/06/12 12:30:27;;;;;;;;;;;22.60;90.10;;;;;;5116300;28;19908;-42
2023/06/12 12:32:54;;;;;;;;;;;22.60;90.10;;;;;;5114945;28;20378;-44
2023/06/12 12:35:20;;;;;;;;;;;22.60;90.00;;;;;;5116517;28;19911;-46
2023/06/12 12:37:46;;;;;;;;;;;22.60;90.10;;;;;;5116403;28;20006;-43
2023/06/12 12:40:13;;;;;;;;;;;22.60;90.10;;;;;;5116379;28;19908;-46
2023/06/12 12:42:45;;;;;;;;;;;22.60;90.20;;;;;;5116137;28;19919;-42
2023/06/12 12:45:12;;;;;;;;;;;22.60;90.30;;;;;;5116165;28;19912;-43
2023/06/12 12:47:40;;;;;;;;;;;22.60;90.30;;;;;;5115970;28;20193;-46
2023/06/12 12:50:06;;;;;;;;;;;22.60;90.00;;;;;;5115540;28;19908;-43
2023/06/12 12:52:31;;;;;;;;;;;22.60;90.00;;;;;;5115935;28;20307;-42
2023/06/12 12:54:59;;;;;;;;;;;22.60;90.10;;;;;;5096784;28;21430;-45
2023/06/12 12:57:31;;;;;;;;;;;22.60;90.00;;;;;;5115754;28;19918;-43
2023/06/12 12:59:58;;;;;;;;;;;22.60;90.00;;;;;;5115403;28;19908;-43
2023/06/12 13:02:24;;;;;;;;;;;22.60;90.10;;;;;;5115612;28;19927;-44
2023/06/12 13:04:50;;;;;;;;;;;22.60;89.90;;;;;;5115697;28;19908;-44
2023/06/12 13:07:15;;;;;;;;;;;22.60;89.80;;;;;;5115620;28;19907;-47
2023/06/12 13:09:41;;;;;;;;;;;22.60;89.80;;;;;;5097164;28;19908;-42
2023/06/12 13:12:09;;;;;;;;;;;22.60;89.90;;;;;;5115640;28;19908;-47
2023/06/12 13:14:34;;;;;;;;;;;22.60;89.50;;;;;;5099704;28;20518;-40
2023/06/12 13:17:00;;;;;;;;;;;22.60;87.40;;;;;;5115464;28;19908;-41
2023/06/12 13:19:28;;;;;;;;;;;22.60;79.50;;;;;;5100761;28;19912;-40
2023/06/12 13:21:53;;;;;;;;;;;22.60;81.40;;;;;;5093592;28;20341;-41
2023/06/12 13:24:19;;;;;;;;;;;22.60;79.00;;;;;;5095540;28;19955;-41
2023/06/12 13:26:44;;;;;;;;;;;22.50;73.90;;;;;;5106015;28;19916;-41
2023/06/12 13:29:10;;;;;;;;;;;22.50;74.40;;;;;;5094563;28;19919;-41
2023/06/12 13:31:35;;;;;;;;;;;22.60;76.80;;;;;;5094526;28;19908;-41
2023/06/12 13:34:00;;;;;;;;;;;22.50;75.60;;;;;;5100685;28;19939;-41
2023/06/12 13:36:26;;;;;;;;;;;22.50;73.30;;;;;;5114686;28;19908;-41
2023/06/12 13:38:51;;;;;;;;;;;22.50;74.90;;;;;;5110467;28;20275;-44
2023/06/12 13:41:17;;;;;;;;;;;22.60;75.60;;;;;;5113139;28;19915;-44
2023/06/12 13:43:42;;;;;;;;;;;22.50;77.10;;;;;;5114464;28;19908;-44
2023/06/12 13:46:08;;;;;;;;;;;22.50;78.70;;;;;;5107697;28;19912;-47
2023/06/12 13:48:33;;;;;;;;;;;22.50;80.00;;;;;;5105870;28;19935;-49
2023/06/12 13:50:59;;;;;;;;;;;22.50;81.10;;;;;;5096218;28;19912;-45
2023/06/12 13:53:25;;;;;;;;;;;22.50;81.90;;;;;;5091834;28;20236;-44
2023/06/12 13:55:51;;;;;;;;;;;22.50;82.40;;;;;;5092477;28;20219;-46
2023/06/12 13:58:16;;;;;;;;;;;22.50;82.60;;;;;;5074083;28;19908;-45
2023/06/12 14:00:42;;;;;;;;;;;22.50;83.30;;;;;;5092337;28;19977;-43
2023/06/12 14:03:07;;;;;;;;;;;22.50;83.80;;;;;;5092108;28;20433;-46
2023/06/12 14:05:33;;;;;;;;;;;22.50;84.20;;;;;;5091918;28;19908;-47
2023/06/12 14:07:58;;;;;;;;;;;22.60;84.30;;;;;;5074752;28;19908;-45
2023/06/12 14:10:24;;;;;;;;;;;22.50;84.40;;;;;;5094062;28;19916;-47
2023/06/12 14:12:49;;;;;;;;;;;22.50;84.50;;;;;;5093714;28;19953;-45